PMO weather

Falcone–Borsellino Airport
Palermo, Sicily, Italy

Public forecast

Using degrees Celsius for public forecast. Weather courtesy of forecast.io.

Current aviation weather report (METAR) for Falcone–Borsellino Airport

Retrieved 2019/10/16 20:20 UTC (10 minutes ago):

LICJ 162020Z 16004KT 9999 FEW035 18/11 Q1020

Aviation forecast (TAF) for Falcone–Borsellino Airport

Retrieved 2019/10/16 18:00 UTC (2 hours ago):

TAF LICJ 161700Z 1618/1718 29012KT 9999 SCT025 BECMG 1708/1710 04012KT BECMG 1716/1718 29010KT